sensor_id;sensor_type;location;lat;lon;timestamp;noise_LAeq;noise_LA_min;noise_LA_max;noise_LA01;noise_LA95
76382;Laerm;65202;52.520;10.528;2023-09-18T00:01:20;39.83;33.86;51.98;;
76382;Laerm;65202;52.520;10.528;2023-09-18T00:03:48;40.22;33.96;51.19;;
76382;Laerm;65202;52.520;10.528;2023-09-18T00:06:15;39.97;33.91;51.86;;
76382;Laerm;65202;52.520;10.528;2023-09-18T00:08:42;39.89;34.05;52.02;;
76382;Laerm;65202;52.520;10.528;2023-09-18T00:11:10;40.24;33.89;52.24;;
76382;Laerm;65202;52.520;10.528;2023-09-18T00:13:38;40.07;33.88;52.41;;
76382;Laerm;65202;52.520;10.528;2023-09-18T00:16:05;40.07;33.81;52.62;;
76382;Laerm;65202;52.520;10.528;2023-09-18T00:18:33;40.61;34.21;53.04;;
76382;Laerm;65202;52.520;10.528;2023-09-18T00:21:00;39.95;32.92;51.88;;
76382;Laerm;65202;52.520;10.528;2023-09-18T00:23:28;40.30;32.65;51.91;;
76382;Laerm;65202;52.520;10.528;2023-09-18T00:25:55;40.26;33.03;52.63;;
76382;Laerm;65202;52.520;10.528;2023-09-18T00:28:22;41.06;34.80;51.78;;
76382;Laerm;65202;52.520;10.528;2023-09-18T00:30:50;39.98;32.93;50.68;;
76382;Laerm;65202;52.520;10.528;2023-09-18T00:33:18;39.87;32.37;52.71;;
76382;Laerm;65202;52.520;10.528;2023-09-18T00:35:51;39.69;33.96;52.05;;
76382;Laerm;65202;52.520;10.528;2023-09-18T00:38:19;40.30;33.99;52.26;;
76382;Laerm;65202;52.520;10.528;2023-09-18T00:40:47;40.45;33.38;52.53;;
76382;Laerm;65202;52.520;10.528;2023-09-18T00:43:14;41.30;34.15;52.89;;
76382;Laerm;65202;52.520;10.528;2023-09-18T00:45:45;40.53;33.64;51.47;;
76382;Laerm;65202;52.520;10.528;2023-09-18T00:48:15;40.35;34.01;52.50;;
76382;Laerm;65202;52.520;10.528;2023-09-18T00:50:44;39.89;33.73;52.88;;
76382;Laerm;65202;52.520;10.528;2023-09-18T00:53:17;40.05;33.44;51.07;;
76382;Laerm;65202;52.520;10.528;2023-09-18T00:55:46;40.07;33.92;52.72;;
76382;Laerm;65202;52.520;10.528;2023-09-18T00:58:13;39.61;33.30;50.96;;
76382;Laerm;65202;52.520;10.528;2023-09-18T01:00:41;39.83;33.83;52.12;;
76382;Laerm;65202;52.520;10.528;2023-09-18T01:03:09;40.33;33.52;53.03;;
76382;Laerm;65202;52.520;10.528;2023-09-18T01:05:37;40.19;33.63;52.37;;
76382;Laerm;65202;52.520;10.528;2023-09-18T01:08:04;40.23;34.13;51.33;;
76382;Laerm;65202;52.520;10.528;2023-09-18T01:13:35;39.06;33.73;52.35;;
76382;Laerm;65202;52.520;10.528;2023-09-18T01:16:25;39.64;33.63;52.95;;
76382;Laerm;65202;52.520;10.528;2023-09-18T01:18:54;40.49;33.92;52.66;;
76382;Laerm;65202;52.520;10.528;2023-09-18T01:21:22;39.90;32.51;52.30;;
76382;Laerm;65202;52.520;10.528;2023-09-18T01:23:49;39.82;32.63;51.76;;
76382;Laerm;65202;52.520;10.528;2023-09-18T01:26:16;40.39;33.59;51.67;;
76382;Laerm;65202;52.520;10.528;2023-09-18T01:28:44;39.91;33.71;52.72;;
76382;Laerm;65202;52.520;10.528;2023-09-18T01:31:11;39.90;33.95;51.96;;
76382;Laerm;65202;52.520;10.528;2023-09-18T01:33:39;40.51;33.91;51.77;;
76382;Laerm;65202;52.520;10.528;2023-09-18T01:36:08;40.17;33.94;51.72;;
76382;Laerm;65202;52.520;10.528;2023-09-18T01:38:36;40.26;34.26;53.00;;
76382;Laerm;65202;52.520;10.528;2023-09-18T01:41:04;40.03;33.90;52.30;;
76382;Laerm;65202;52.520;10.528;2023-09-18T01:43:31;39.93;34.04;52.51;;
76382;Laerm;65202;52.520;10.528;2023-09-18T01:45:59;40.15;33.91;52.95;;
76382;Laerm;65202;52.520;10.528;2023-09-18T01:48:26;40.20;34.48;51.84;;
76382;Laerm;65202;52.520;10.528;2023-09-18T01:50:53;40.10;34.13;52.85;;
76382;Laerm;65202;52.520;10.528;2023-09-18T01:53:20;40.46;34.13;53.66;;
76382;Laerm;65202;52.520;10.528;2023-09-18T01:55:48;40.39;33.82;52.23;;
76382;Laerm;65202;52.520;10.528;2023-09-18T01:58:15;40.15;33.87;53.55;;
76382;Laerm;65202;52.520;10.528;2023-09-18T02:00:43;40.31;33.57;51.63;;
76382;Laerm;65202;52.520;10.528;2023-09-18T02:03:11;41.03;34.30;52.48;;
76382;Laerm;65202;52.520;10.528;2023-09-18T02:05:58;39.93;33.91;52.20;;
76382;Laerm;65202;52.520;10.528;2023-09-18T02:08:26;39.96;33.77;51.82;;
76382;Laerm;65202;52.520;10.528;2023-09-18T02:10:53;40.02;33.28;52.23;;
76382;Laerm;65202;52.520;10.528;2023-09-18T02:13:20;40.50;33.96;52.68;;
76382;Laerm;65202;52.520;10.528;2023-09-18T02:15:48;40.28;33.72;51.87;;
76382;Laerm;65202;52.520;10.528;2023-09-18T02:18:15;39.63;33.64;51.53;;
76382;Laerm;65202;52.520;10.528;2023-09-18T02:20:43;39.82;33.92;50.89;;
76382;Laerm;65202;52.520;10.528;2023-09-18T02:23:15;40.10;33.81;51.57;;
76382;Laerm;65202;52.520;10.528;2023-09-18T02:25:43;41.01;34.19;52.10;;
76382;Laerm;65202;52.520;10.528;2023-09-18T02:28:10;40.51;33.73;56.09;;
76382;Laerm;65202;52.520;10.528;2023-09-18T02:30:37;40.62;34.06;52.79;;
76382;Laerm;65202;52.520;10.528;2023-09-18T02:33:05;39.97;34.09;52.46;;
76382;Laerm;65202;52.520;10.528;2023-09-18T02:35:32;44.81;34.39;59.67;;
76382;Laerm;65202;52.520;10.528;2023-09-18T02:37:59;40.81;34.59;52.41;;
76382;Laerm;65202;52.520;10.528;2023-09-18T02:40:29;40.51;34.69;52.49;;
76382;Laerm;65202;52.520;10.528;2023-09-18T02:42:56;40.18;34.15;51.67;;
76382;Laerm;65202;52.520;10.528;2023-09-18T02:45:23;40.12;33.95;51.45;;
76382;Laerm;65202;52.520;10.528;2023-09-18T02:47:50;40.62;34.89;52.62;;
76382;Laerm;65202;52.520;10.528;2023-09-18T02:50:18;40.56;34.40;53.83;;
76382;Laerm;65202;52.520;10.528;2023-09-18T02:52:45;41.04;34.96;51.17;;
76382;Laerm;65202;52.520;10.528;2023-09-18T02:55:12;41.15;35.57;51.75;;
76382;Laerm;65202;52.520;10.528;2023-09-18T02:57:40;41.15;34.58;53.04;;
76382;Laerm;65202;52.520;10.528;2023-09-18T03:00:08;40.68;34.57;52.52;;
76382;Laerm;65202;52.520;10.528;2023-09-18T03:02:36;41.77;35.51;52.53;;
76382;Laerm;65202;52.520;10.528;2023-09-18T03:05:04;42.55;36.39;52.23;;
76382;Laerm;65202;52.520;10.528;2023-09-18T03:07:31;41.84;35.38;51.93;;
76382;Laerm;65202;52.520;10.528;2023-09-18T03:09:59;41.24;35.87;52.14;;
76382;Laerm;65202;52.520;10.528;2023-09-18T03:12:26;42.06;37.02;51.12;;
76382;Laerm;65202;52.520;10.528;2023-09-18T03:14:53;41.19;34.91;52.08;;
76382;Laerm;65202;52.520;10.528;2023-09-18T03:17:21;41.00;34.72;51.49;;
76382;Laerm;65202;52.520;10.528;2023-09-18T03:19:49;41.87;36.72;51.23;;
76382;Laerm;65202;52.520;10.528;2023-09-18T03:22:16;42.80;36.73;53.10;;
76382;Laerm;65202;52.520;10.528;2023-09-18T03:24:43;42.49;36.60;52.18;;
76382;Laerm;65202;52.520;10.528;2023-09-18T03:27:10;41.91;36.77;52.71;;
76382;Laerm;65202;52.520;10.528;2023-09-18T03:29:38;42.11;35.70;53.74;;
76382;Laerm;65202;52.520;10.528;2023-09-18T03:32:05;45.62;38.07;62.27;;
76382;Laerm;65202;52.520;10.528;2023-09-18T03:34:32;43.14;36.67;51.62;;
76382;Laerm;65202;52.520;10.528;2023-09-18T03:37:00;43.16;36.79;53.53;;
76382;Laerm;65202;52.520;10.528;2023-09-18T03:39:27;43.07;38.05;52.57;;
76382;Laerm;65202;52.520;10.528;2023-09-18T03:41:55;42.10;36.37;52.31;;
76382;Laerm;65202;52.520;10.528;2023-09-18T03:44:22;41.71;35.99;51.61;;
76382;Laerm;65202;52.520;10.528;2023-09-18T03:46:50;42.45;37.01;53.68;;
76382;Laerm;65202;52.520;10.528;2023-09-18T03:49:17;42.76;36.99;53.46;;
76382;Laerm;65202;52.520;10.528;2023-09-18T03:51:44;42.55;36.50;51.88;;
76382;Laerm;65202;52.520;10.528;2023-09-18T03:54:11;42.09;36.00;51.83;;
76382;Laerm;65202;52.520;10.528;2023-09-18T03:56:39;45.53;36.80;63.44;;
76382;Laerm;65202;52.520;10.528;2023-09-18T03:59:06;42.78;36.69;51.98;;
76382;Laerm;65202;52.520;10.528;2023-09-18T04:01:33;42.43;37.13;55.38;;
76382;Laerm;65202;52.520;10.528;2023-09-18T04:04:00;42.99;35.98;53.14;;
76382;Laerm;65202;52.520;10.528;2023-09-18T04:06:44;43.23;38.37;52.07;;
76382;Laerm;65202;52.520;10.528;2023-09-18T04:09:13;42.58;36.74;54.02;;
76382;Laerm;65202;52.520;10.528;2023-09-18T04:11:42;43.17;36.09;54.49;;
76382;Laerm;65202;52.520;10.528;2023-09-18T04:14:09;43.57;37.19;62.07;;
76382;Laerm;65202;52.520;10.528;2023-09-18T04:16:36;43.25;37.93;54.73;;
76382;Laerm;65202;52.520;10.528;2023-09-18T04:19:07;42.62;38.20;52.88;;
76382;Laerm;65202;52.520;10.528;2023-09-18T04:21:35;43.63;38.04;58.51;;
76382;Laerm;65202;52.520;10.528;2023-09-18T04:24:03;44.98;39.23;53.63;;
76382;Laerm;65202;52.520;10.528;2023-09-18T04:26:30;43.13;38.21;52.44;;
76382;Laerm;65202;52.520;10.528;2023-09-18T04:29:01;43.52;38.45;64.78;;
76382;Laerm;65202;52.520;10.528;2023-09-18T04:31:28;45.08;37.93;58.83;;
76382;Laerm;65202;52.520;10.528;2023-09-18T04:33:56;46.85;39.84;64.00;;
76382;Laerm;65202;52.520;10.528;2023-09-18T04:36:24;43.82;38.74;56.24;;
76382;Laerm;65202;52.520;10.528;2023-09-18T04:38:51;43.39;37.82;52.98;;
76382;Laerm;65202;52.520;10.528;2023-09-18T04:41:19;44.47;40.03;58.07;;
76382;Laerm;65202;52.520;10.528;2023-09-18T04:43:47;47.48;39.01;65.57;;
76382;Laerm;65202;52.520;10.528;2023-09-18T04:46:15;47.13;41.13;62.38;;
76382;Laerm;65202;52.520;10.528;2023-09-18T04:48:42;45.27;40.20;54.75;;
76382;Laerm;65202;52.520;10.528;2023-09-18T04:51:10;46.41;40.27;61.48;;
76382;Laerm;65202;52.520;10.528;2023-09-18T04:53:37;45.29;40.18;57.88;;
76382;Laerm;65202;52.520;10.528;2023-09-18T04:56:05;48.76;40.56;63.38;;
76382;Laerm;65202;52.520;10.528;2023-09-18T04:58:32;46.63;39.86;60.57;;
76382;Laerm;65202;52.520;10.528;2023-09-18T05:01:00;47.05;38.82;56.47;;
76382;Laerm;65202;52.520;10.528;2023-09-18T05:03:34;45.57;39.57;56.95;;
76382;Laerm;65202;52.520;10.528;2023-09-18T05:06:02;52.45;40.81;75.40;;
76382;Laerm;65202;52.520;10.528;2023-09-18T05:08:31;47.51;39.99;64.02;;
76382;Laerm;65202;52.520;10.528;2023-09-18T05:10:58;45.63;39.68;60.20;;
76382;Laerm;65202;52.520;10.528;2023-09-18T05:13:26;45.88;40.50;60.63;;
76382;Laerm;65202;52.520;10.528;2023-09-18T05:15:53;47.30;41.65;66.97;;
76382;Laerm;65202;52.520;10.528;2023-09-18T05:18:21;49.62;42.04;63.35;;
76382;Laerm;65202;52.520;10.528;2023-09-18T05:20:48;47.26;41.35;61.12;;
76382;Laerm;65202;52.520;10.528;2023-09-18T05:23:16;47.14;40.20;64.08;;
76382;Laerm;65202;52.520;10.528;2023-09-18T05:25:45;48.23;41.21;61.13;;
76382;Laerm;65202;52.520;10.528;2023-09-18T05:28:12;49.10;41.97;67.90;;
76382;Laerm;65202;52.520;10.528;2023-09-18T05:30:39;48.88;41.50;63.24;;
76382;Laerm;65202;52.520;10.528;2023-09-18T05:33:07;47.77;42.56;61.10;;
76382;Laerm;65202;52.520;10.528;2023-09-18T05:35:43;51.16;39.36;63.93;;
76382;Laerm;65202;52.520;10.528;2023-09-18T05:38:13;46.19;41.28;59.47;;
76382;Laerm;65202;52.520;10.528;2023-09-18T05:40:41;46.66;40.95;56.69;;
76382;Laerm;65202;52.520;10.528;2023-09-18T05:43:09;46.77;41.19;60.77;;
76382;Laerm;65202;52.520;10.528;2023-09-18T05:45:37;47.39;41.55;58.10;;
76382;Laerm;65202;52.520;10.528;2023-09-18T05:48:05;47.08;41.85;57.23;;
76382;Laerm;65202;52.520;10.528;2023-09-18T05:50:34;48.38;41.09;64.14;;
76382;Laerm;65202;52.520;10.528;2023-09-18T05:53:03;46.52;41.67;61.35;;
76382;Laerm;65202;52.520;10.528;2023-09-18T05:55:33;47.14;41.56;61.68;;
76382;Laerm;65202;52.520;10.528;2023-09-18T05:58:01;47.19;41.33;64.78;;
76382;Laerm;65202;52.520;10.528;2023-09-18T06:00:31;45.73;40.98;56.53;;
76382;Laerm;65202;52.520;10.528;2023-09-18T06:02:59;46.22;41.03;62.84;;
76382;Laerm;65202;52.520;10.528;2023-09-18T06:05:27;51.94;41.49;68.19;;
76382;Laerm;65202;52.520;10.528;2023-09-18T06:07:54;46.27;40.75;61.09;;
76382;Laerm;65202;52.520;10.528;2023-09-18T06:10:21;48.66;40.79;61.72;;
76382;Laerm;65202;52.520;10.528;2023-09-18T06:12:48;48.48;42.60;61.26;;
76382;Laerm;65202;52.520;10.528;2023-09-18T06:15:16;46.83;41.84;59.21;;
76382;Laerm;65202;52.520;10.528;2023-09-18T06:17:43;47.90;42.51;63.48;;
76382;Laerm;65202;52.520;10.528;2023-09-18T06:20:12;47.39;40.41;57.77;;
76382;Laerm;65202;52.520;10.528;2023-09-18T06:22:43;49.00;40.42;71.28;;
76382;Laerm;65202;52.520;10.528;2023-09-18T06:25:10;47.76;41.40;59.51;;
76382;Laerm;65202;52.520;10.528;2023-09-18T06:27:38;49.21;39.84;64.59;;
76382;Laerm;65202;52.520;10.528;2023-09-18T06:30:06;46.80;40.35;70.25;;
76382;Laerm;65202;52.520;10.528;2023-09-18T06:32:34;52.22;39.95;66.91;;
76382;Laerm;65202;52.520;10.528;2023-09-18T06:35:01;46.60;39.23;68.73;;
76382;Laerm;65202;52.520;10.528;2023-09-18T06:37:29;49.51;40.85;61.77;;
76382;Laerm;65202;52.520;10.528;2023-09-18T06:39:56;47.77;40.70;67.13;;
76382;Laerm;65202;52.520;10.528;2023-09-18T06:42:26;48.50;40.64;62.03;;
76382;Laerm;65202;52.520;10.528;2023-09-18T06:44:53;45.93;40.11;58.64;;
76382;Laerm;65202;52.520;10.528;2023-09-18T06:47:21;45.21;40.42;55.62;;
76382;Laerm;65202;52.520;10.528;2023-09-18T06:49:51;46.28;40.66;64.81;;
76382;Laerm;65202;52.520;10.528;2023-09-18T06:52:19;47.91;40.94;67.95;;
76382;Laerm;65202;52.520;10.528;2023-09-18T06:54:46;45.00;40.48;54.83;;
76382;Laerm;65202;52.520;10.528;2023-09-18T06:57:13;47.26;40.99;60.01;;
76382;Laerm;65202;52.520;10.528;2023-09-18T06:59:40;50.93;39.89;68.44;;
76382;Laerm;65202;52.520;10.528;2023-09-18T07:02:08;45.80;39.82;68.77;;
76382;Laerm;65202;52.520;10.528;2023-09-18T07:04:35;51.24;40.11;67.46;;
76382;Laerm;65202;52.520;10.528;2023-09-18T07:07:02;47.28;40.28;67.09;;
76382;Laerm;65202;52.520;10.528;2023-09-18T07:09:30;48.34;41.75;59.17;;
76382;Laerm;65202;52.520;10.528;2023-09-18T07:11:57;50.01;41.64;65.56;;
76382;Laerm;65202;52.520;10.528;2023-09-18T07:14:25;47.57;41.39;58.36;;
76382;Laerm;65202;52.520;10.528;2023-09-18T07:16:52;47.29;41.28;59.25;;
76382;Laerm;65202;52.520;10.528;2023-09-18T07:19:19;46.13;41.82;67.60;;
76382;Laerm;65202;52.520;10.528;2023-09-18T07:21:46;44.02;40.10;52.02;;
76382;Laerm;65202;52.520;10.528;2023-09-18T07:24:14;45.72;39.32;72.28;;
76382;Laerm;65202;52.520;10.528;2023-09-18T07:26:45;44.28;39.46;61.07;;
76382;Laerm;65202;52.520;10.528;2023-09-18T07:29:14;47.28;39.48;65.77;;
76382;Laerm;65202;52.520;10.528;2023-09-18T07:31:43;44.39;39.24;53.03;;
76382;Laerm;65202;52.520;10.528;2023-09-18T07:34:11;47.47;39.11;60.45;;
76382;Laerm;65202;52.520;10.528;2023-09-18T07:36:40;45.34;39.08;54.96;;
76382;Laerm;65202;52.520;10.528;2023-09-18T07:39:07;47.84;38.65;65.41;;
76382;Laerm;65202;52.520;10.528;2023-09-18T07:41:35;48.25;39.47;66.13;;
76382;Laerm;65202;52.520;10.528;2023-09-18T07:44:03;49.51;39.59;66.07;;
76382;Laerm;65202;52.520;10.528;2023-09-18T07:46:30;50.85;40.76;63.80;;
76382;Laerm;65202;52.520;10.528;2023-09-18T07:48:57;49.40;40.97;56.14;;
76382;Laerm;65202;52.520;10.528;2023-09-18T07:51:24;44.14;39.49;53.55;;
76382;Laerm;65202;52.520;10.528;2023-09-18T07:53:52;47.92;39.94;57.04;;
76382;Laerm;65202;52.520;10.528;2023-09-18T07:56:19;48.96;40.71;63.57;;
76382;Laerm;65202;52.520;10.528;2023-09-18T07:58:46;44.05;39.64;52.77;;
76382;Laerm;65202;52.520;10.528;2023-09-18T08:01:14;44.26;39.14;55.80;;
76382;Laerm;65202;52.520;10.528;2023-09-18T08:03:43;50.49;40.00;64.35;;
76382;Laerm;65202;52.520;10.528;2023-09-18T08:06:11;48.89;43.80;56.82;;
76382;Laerm;65202;52.520;10.528;2023-09-18T08:08:38;49.37;42.68;63.37;;
76382;Laerm;65202;52.520;10.528;2023-09-18T08:11:08;45.88;39.61;55.68;;
76382;Laerm;65202;52.520;10.528;2023-09-18T08:13:38;61.18;39.32;73.19;;
76382;Laerm;65202;52.520;10.528;2023-09-18T08:16:06;57.85;43.25;62.83;;
76382;Laerm;65202;52.520;10.528;2023-09-18T08:18:35;49.75;41.63;58.26;;
76382;Laerm;65202;52.520;10.528;2023-09-18T08:21:02;64.14;54.71;68.74;;
76382;Laerm;65202;52.520;10.528;2023-09-18T08:23:31;60.76;50.29;71.16;;
76382;Laerm;65202;52.520;10.528;2023-09-18T08:25:59;64.05;52.05;72.35;;
76382;Laerm;65202;52.520;10.528;2023-09-18T08:28:27;75.57;56.41;85.64;;
76382;Laerm;65202;52.520;10.528;2023-09-18T08:30:54;75.46;56.93;83.47;;
76382;Laerm;65202;52.520;10.528;2023-09-18T08:33:22;79.70;67.68;87.77;;
76382;Laerm;65202;52.520;10.528;2023-09-18T08:35:49;66.49;58.16;74.89;;
76382;Laerm;65202;52.520;10.528;2023-09-18T08:38:17;78.97;61.01;88.31;;
76382;Laerm;65202;52.520;10.528;2023-09-18T08:40:44;67.16;38.65;77.88;;
76382;Laerm;65202;52.520;10.528;2023-09-18T08:43:14;63.92;39.28;76.18;;
76382;Laerm;65202;52.520;10.528;2023-09-18T08:45:51;81.05;67.29;89.33;;
76382;Laerm;65202;52.520;10.528;2023-09-18T08:48:21;72.71;43.56;86.94;;
76382;Laerm;65202;52.520;10.528;2023-09-18T08:50:50;51.31;43.04;60.83;;
76382;Laerm;65202;52.520;10.528;2023-09-18T08:53:18;50.91;42.09;68.66;;
76382;Laerm;65202;52.520;10.528;2023-09-18T08:55:45;53.08;43.69;68.83;;
76382;Laerm;65202;52.520;10.528;2023-09-18T08:58:13;49.64;40.57;63.61;;
76382;Laerm;65202;52.520;10.528;2023-09-18T09:00:41;57.95;41.22;80.86;;
76382;Laerm;65202;52.520;10.528;2023-09-18T09:03:08;47.86;41.00;59.01;;
76382;Laerm;65202;52.520;10.528;2023-09-18T09:05:37;69.77;50.91;83.13;;
76382;Laerm;65202;52.520;10.528;2023-09-18T09:08:04;71.28;48.30;89.21;;
76382;Laerm;65202;52.520;10.528;2023-09-18T09:10:31;61.75;46.09;74.53;;
76382;Laerm;65202;52.520;10.528;2023-09-18T09:12:59;72.53;56.49;84.40;;
76382;Laerm;65202;52.520;10.528;2023-09-18T09:15:47;64.93;40.45;82.84;;
76382;Laerm;65202;52.520;10.528;2023-09-18T09:18:17;52.62;40.40;66.97;;
76382;Laerm;65202;52.520;10.528;2023-09-18T09:20:57;69.34;41.21;79.59;;
76382;Laerm;65202;52.520;10.528;2023-09-18T09:23:29;65.75;43.32;86.25;;
76382;Laerm;65202;52.520;10.528;2023-09-18T09:26:16;49.29;38.44;71.72;;
76382;Laerm;65202;52.520;10.528;2023-09-18T09:28:45;62.17;40.05;87.22;;
76382;Laerm;65202;52.520;10.528;2023-09-18T09:31:31;47.45;37.10;55.94;;
76382;Laerm;65202;52.520;10.528;2023-09-18T09:33:59;50.87;41.07;60.99;;
76382;Laerm;65202;52.520;10.528;2023-09-18T09:36:30;45.81;40.66;59.14;;
76382;Laerm;65202;52.520;10.528;2023-09-18T09:38:58;45.97;39.38;63.64;;
76382;Laerm;65202;52.520;10.528;2023-09-18T09:41:27;47.26;39.96;60.87;;
76382;Laerm;65202;52.520;10.528;2023-09-18T09:43:58;56.46;41.69;71.72;;
76382;Laerm;65202;52.520;10.528;2023-09-18T09:46:25;45.95;40.93;54.01;;
76382;Laerm;65202;52.520;10.528;2023-09-18T09:49:04;48.09;41.19;59.95;;
76382;Laerm;65202;52.520;10.528;2023-09-18T09:51:33;46.83;40.69;59.70;;
76382;Laerm;65202;52.520;10.528;2023-09-18T09:54:01;51.44;44.58;69.47;;
76382;Laerm;65202;52.520;10.528;2023-09-18T09:56:48;56.21;39.26;74.53;;
76382;Laerm;65202;52.520;10.528;2023-09-18T09:59:19;48.44;40.30;67.53;;
76382;Laerm;65202;52.520;10.528;2023-09-18T10:01:48;48.75;41.62;61.71;;
76382;Laerm;65202;52.520;10.528;2023-09-18T10:04:19;48.82;43.04;69.77;;
76382;Laerm;65202;52.520;10.528;2023-09-18T10:07:05;48.39;43.47;63.47;;
76382;Laerm;65202;52.520;10.528;2023-09-18T10:09:35;46.84;40.00;69.19;;
76382;Laerm;65202;52.520;10.528;2023-09-18T10:12:11;49.28;40.37;71.51;;
76382;Laerm;65202;52.520;10.528;2023-09-18T10:14:39;46.84;40.54;56.52;;
76382;Laerm;65202;52.520;10.528;2023-09-18T10:17:27;48.77;39.65;58.37;;
76382;Laerm;65202;52.520;10.528;2023-09-18T10:20:08;46.08;39.34;55.01;;
76382;Laerm;65202;52.520;10.528;2023-09-18T10:22:42;45.66;39.17;66.90;;
76382;Laerm;65202;52.520;10.528;2023-09-18T10:25:17;45.79;39.20;55.75;;
76382;Laerm;65202;52.520;10.528;2023-09-18T10:27:49;45.52;38.50;61.34;;
76382;Laerm;65202;52.520;10.528;2023-09-18T10:30:17;47.61;38.80;62.69;;
76382;Laerm;65202;52.520;10.528;2023-09-18T10:32:46;48.36;39.33;65.16;;
76382;Laerm;65202;52.520;10.528;2023-09-18T10:35:14;45.79;38.90;66.62;;
76382;Laerm;65202;52.520;10.528;2023-09-18T10:37:42;47.04;37.83;64.67;;
76382;Laerm;65202;52.520;10.528;2023-09-18T10:40:13;47.46;38.39;66.43;;
76382;Laerm;65202;52.520;10.528;2023-09-18T10:42:41;48.48;38.89;66.02;;
76382;Laerm;65202;52.520;10.528;2023-09-18T10:45:11;48.59;37.80;61.99;;
76382;Laerm;65202;52.520;10.528;2023-09-18T10:47:43;48.89;38.78;63.24;;
76382;Laerm;65202;52.520;10.528;2023-09-18T10:50:22;42.36;38.25;53.44;;
76382;Laerm;65202;52.520;10.528;2023-09-18T10:52:51;50.44;38.93;63.47;;
76382;Laerm;65202;52.520;10.528;2023-09-18T10:55:18;48.45;39.94;55.91;;
76382;Laerm;65202;52.520;10.528;2023-09-18T10:57:53;50.57;42.80;60.07;;
76382;Laerm;65202;52.520;10.528;2023-09-18T11:00:25;47.15;39.87;58.55;;
76382;Laerm;65202;52.520;10.528;2023-09-18T11:03:27;56.51;46.13;70.39;;
76382;Laerm;65202;52.520;10.528;2023-09-18T11:06:11;52.28;44.32;63.48;;
76382;Laerm;65202;52.520;10.528;2023-09-18T11:08:49;46.48;42.22;52.51;;
76382;Laerm;65202;52.520;10.528;2023-09-18T11:11:20;46.40;40.74;55.78;;
76382;Laerm;65202;52.520;10.528;2023-09-18T11:13:51;45.74;40.96;55.17;;
76382;Laerm;65202;52.520;10.528;2023-09-18T11:21:31;44.29;39.03;55.99;;
76382;Laerm;65202;52.520;10.528;2023-09-18T11:24:09;44.95;38.43;57.36;;
76382;Laerm;65202;52.520;10.528;2023-09-18T11:26:46;47.38;39.49;64.90;;
76382;Laerm;65202;52.520;10.528;2023-09-18T11:29:18;45.44;39.93;53.54;;
76382;Laerm;65202;52.520;10.528;2023-09-18T11:31:55;48.93;38.26;64.37;;
76382;Laerm;65202;52.520;10.528;2023-09-18T11:34:25;46.89;40.91;58.42;;
76382;Laerm;65202;52.520;10.528;2023-09-18T11:36:58;44.81;39.37;54.31;;
76382;Laerm;65202;52.520;10.528;2023-09-18T11:39:39;46.72;40.43;60.73;;
76382;Laerm;65202;52.520;10.528;2023-09-18T11:42:13;46.38;41.03;53.62;;
76382;Laerm;65202;52.520;10.528;2023-09-18T11:44:43;48.57;40.61;56.35;;
76382;Laerm;65202;52.520;10.528;2023-09-18T11:47:16;47.74;40.72;55.10;;
76382;Laerm;65202;52.520;10.528;2023-09-18T11:49:55;51.04;40.36;66.73;;
76382;Laerm;65202;52.520;10.528;2023-09-18T11:52:28;47.00;40.18;53.52;;
76382;Laerm;65202;52.520;10.528;2023-09-18T11:54:59;49.09;40.83;64.28;;
76382;Laerm;65202;52.520;10.528;2023-09-18T11:57:27;46.61;40.84;56.27;;
76382;Laerm;65202;52.520;10.528;2023-09-18T11:59:56;45.24;39.91;54.45;;
76382;Laerm;65202;52.520;10.528;2023-09-18T12:02:29;57.06;40.40;74.95;;
76382;Laerm;65202;52.520;10.528;2023-09-18T12:05:14;44.09;38.33;54.45;;
76382;Laerm;65202;52.520;10.528;2023-09-18T12:07:46;44.75;39.55;64.72;;
76382;Laerm;65202;52.520;10.528;2023-09-18T12:10:15;43.68;37.93;53.23;;
76382;Laerm;65202;52.520;10.528;2023-09-18T12:12:46;43.84;38.27;57.46;;
76382;Laerm;65202;52.520;10.528;2023-09-18T12:15:18;50.83;41.79;68.98;;
76382;Laerm;65202;52.520;10.528;2023-09-18T12:17:47;48.89;41.99;62.29;;
76382;Laerm;65202;52.520;10.528;2023-09-18T12:20:18;54.45;40.79;74.19;;
76382;Laerm;65202;52.520;10.528;2023-09-18T12:22:50;46.82;41.21;53.95;;
76382;Laerm;65202;52.520;10.528;2023-09-18T12:25:18;47.16;41.74;54.06;;
76382;Laerm;65202;52.520;10.528;2023-09-18T12:27:46;48.78;42.68;60.05;;
76382;Laerm;65202;52.520;10.528;2023-09-18T12:30:19;49.35;41.28;65.03;;
76382;Laerm;65202;52.520;10.528;2023-09-18T12:32:50;51.24;39.48;63.75;;
76382;Laerm;65202;52.520;10.528;2023-09-18T12:35:18;44.44;38.15;53.98;;
76382;Laerm;65202;52.520;10.528;2023-09-18T12:37:46;58.24;40.65;71.86;;
76382;Laerm;65202;52.520;10.528;2023-09-18T12:40:30;48.63;39.52;69.01;;
76382;Laerm;65202;52.520;10.528;2023-09-18T12:43:00;44.88;37.82;57.26;;
76382;Laerm;65202;52.520;10.528;2023-09-18T12:45:29;45.71;39.55;53.06;;
76382;Laerm;65202;52.520;10.528;2023-09-18T12:47:58;45.13;39.67;59.86;;
76382;Laerm;65202;52.520;10.528;2023-09-18T12:50:27;47.17;40.01;59.85;;
76382;Laerm;65202;52.520;10.528;2023-09-18T12:53:12;47.63;38.05;65.25;;
76382;Laerm;65202;52.520;10.528;2023-09-18T12:55:43;46.57;39.48;61.50;;
76382;Laerm;65202;52.520;10.528;2023-09-18T12:58:11;50.04;39.21;65.83;;
76382;Laerm;65202;52.520;10.528;2023-09-18T13:00:49;46.76;39.76;60.75;;
76382;Laerm;65202;52.520;10.528;2023-09-18T13:03:17;42.65;37.82;52.45;;
76382;Laerm;65202;52.520;10.528;2023-09-18T13:05:45;42.32;37.01;51.87;;
76382;Laerm;65202;52.520;10.528;2023-09-18T13:08:14;44.08;36.75;56.63;;
76382;Laerm;65202;52.520;10.528;2023-09-18T13:10:48;55.85;40.76;78.14;;
76382;Laerm;65202;52.520;10.528;2023-09-18T13:13:23;48.65;39.11;64.57;;
76382;Laerm;65202;52.520;10.528;2023-09-18T13:15:51;49.96;39.29;63.71;;
76382;Laerm;65202;52.520;10.528;2023-09-18T13:18:22;48.53;38.51;66.38;;
76382;Laerm;65202;52.520;10.528;2023-09-18T13:20:53;46.55;38.64;62.17;;
76382;Laerm;65202;52.520;10.528;2023-09-18T13:23:27;42.82;38.09;53.23;;
76382;Laerm;65202;52.520;10.528;2023-09-18T13:26:00;43.18;37.35;56.67;;
76382;Laerm;65202;52.520;10.528;2023-09-18T13:28:27;44.90;37.93;58.44;;
76382;Laerm;65202;52.520;10.528;2023-09-18T13:30:57;49.58;39.08;75.28;;
76382;Laerm;65202;52.520;10.528;2023-09-18T13:33:26;44.40;39.34;54.18;;
76382;Laerm;65202;52.520;10.528;2023-09-18T13:35:54;43.91;38.97;54.98;;
76382;Laerm;65202;52.520;10.528;2023-09-18T13:38:23;48.20;38.92;64.02;;
76382;Laerm;65202;52.520;10.528;2023-09-18T13:40:54;45.99;38.60;63.04;;
76382;Laerm;65202;52.520;10.528;2023-09-18T13:43:24;44.07;37.43;59.65;;
76382;Laerm;65202;52.520;10.528;2023-09-18T13:45:51;41.83;36.82;52.38;;
76382;Laerm;65202;52.520;10.528;2023-09-18T13:48:19;43.19;36.80;56.14;;
76382;Laerm;65202;52.520;10.528;2023-09-18T13:50:49;48.33;37.63;63.32;;
76382;Laerm;65202;52.520;10.528;2023-09-18T13:53:19;42.89;36.82;62.73;;